Time;durP1;ratioP1;P1;durP2;ratioP2;P2;SDS_P1;SDS_P2;PMS_P1;PMS_P2;Temp;Humidity;BMP_temperature;BMP_pressure;BME280_temperature;BME280_humidity;BME280_pressure;Samples;Min_cycle;Max_cycle;Signal;HPM_P1;HPM_P2
2022/01/03 00:00:33;;;;;;;2.97;0.40;;;20.50;51.00;;;;;;5035767;28;20056;-59
2022/01/03 00:03:04;;;;;;;3.92;0.45;;;20.50;51.00;;;;;;5037491;28;20071;-58
2022/01/03 00:05:32;;;;;;;4.97;0.95;;;20.50;51.00;;;;;;5039740;28;21144;-58
2022/01/03 00:07:59;;;;;;;7.22;0.30;;;20.40;51.00;;;;;;5031214;28;20033;-59
2022/01/03 00:10:26;;;;;;;7.18;0.93;;;20.40;51.00;;;;;;5030967;28;20125;-59
2022/01/03 00:12:54;;;;;;;2.15;0.50;;;20.40;50.90;;;;;;5032663;28;20307;-58
2022/01/03 00:15:21;;;;;;;6.97;0.77;;;20.40;50.90;;;;;;5035663;28;20057;-60
2022/01/03 00:17:50;;;;;;;4.88;0.35;;;20.40;50.90;;;;;;5046076;28;20049;-58
2022/01/03 00:20:17;;;;;;;3.20;0.43;;;20.50;51.00;;;;;;5045980;28;20128;-60
2022/01/03 00:22:50;;;;;;;5.47;0.47;;;20.40;50.90;;;;;;5047168;28;20124;-60
2022/01/03 00:25:19;;;;;;;5.78;0.45;;;20.40;50.90;;;;;;5035452;28;20113;-59
2022/01/03 00:27:57;;;;;;;2.75;0.63;;;20.40;51.00;;;;;;5041364;28;20037;-56
2022/01/03 00:30:26;;;;;;;3.45;0.20;;;20.40;51.00;;;;;;5036760;28;20045;-58
2022/01/03 00:32:54;;;;;;;4.03;0.75;;;20.40;51.00;;;;;;5040114;28;20037;-59
2022/01/03 00:35:22;;;;;;;3.92;0.77;;;20.40;51.00;;;;;;5036676;28;20052;-60
2022/01/03 00:37:50;;;;;;;8.80;0.52;;;20.40;51.00;;;;;;5036871;28;20040;-59
2022/01/03 00:40:21;;;;;;;4.20;0.73;;;20.40;51.00;;;;;;5040996;28;20124;-59
2022/01/03 00:42:50;;;;;;;2.72;0.20;;;20.40;50.90;;;;;;5040688;28;20056;-59
2022/01/03 00:45:17;;;;;;;8.68;0.50;;;20.40;51.00;;;;;;5041882;28;20159;-59
2022/01/03 00:47:47;;;;;;;1.33;0.63;;;20.40;51.00;;;;;;5039331;28;20051;-60
2022/01/03 00:50:17;;;;;;;6.65;0.55;;;20.40;50.90;;;;;;5045145;28;20037;-59
2022/01/03 00:52:46;;;;;;;8.27;0.85;;;20.40;50.90;;;;;;5035291;28;20051;-56
2022/01/03 00:55:14;;;;;;;4.15;0.35;;;20.40;51.00;;;;;;5037347;28;20037;-59
2022/01/03 00:58:02;;;;;;;6.85;1.08;;;20.40;50.90;;;;;;5033287;28;20049;-58
2022/01/03 01:00:32;;;;;;;2.50;0.38;;;20.40;50.90;;;;;;5038389;28;20042;-59
2022/01/03 01:03:05;;;;;;;6.90;0.20;;;20.40;51.00;;;;;;5040172;28;20581;-60
2022/01/03 01:05:36;;;;;;;3.00;0.30;;;20.40;51.00;;;;;;5045129;28;20041;-60
2022/01/03 01:08:03;;;;;;;6.40;0.60;;;20.40;51.00;;;;;;5036750;28;20102;-59
2022/01/03 01:10:32;;;;;;;5.60;0.22;;;20.40;51.00;;;;;;5032689;28;20049;-59
2022/01/03 01:12:59;;;;;;;4.32;0.68;;;20.40;51.00;;;;;;5039674;28;20041;-59
2022/01/03 01:15:29;;;;;;;3.60;0.80;;;20.40;51.00;;;;;;5037965;28;20041;-59
2022/01/03 01:17:58;;;;;;;3.53;0.40;;;20.40;51.00;;;;;;5042822;28;20045;-60
2022/01/03 01:20:26;;;;;;;2.55;0.60;;;20.30;50.90;;;;;;5036098;28;20510;-59
2022/01/03 01:22:58;;;;;;;9.60;1.25;;;20.30;50.90;;;;;;5044469;28;20490;-59
2022/01/03 01:27:46;;;;;;;4.95;0.73;;;20.30;50.90;;;;;;5033947;28;20064;-59
2022/01/03 01:28:16;;;;;;;5.68;0.45;;;20.30;50.90;;;;;;5042874;28;20048;-59
2022/01/03 01:30:44;;;;;;;2.85;0.52;;;20.30;50.90;;;;;;5034015;28;20034;-59
2022/01/03 01:33:12;;;;;;;3.08;0.77;;;20.30;50.90;;;;;;5033637;28;20069;-59
2022/01/03 01:35:43;;;;;;;4.35;0.50;;;20.30;50.90;;;;;;5037140;28;20575;-59
2022/01/03 01:38:20;;;;;;;6.70;0.55;;;20.40;51.00;;;;;;5044677;28;20405;-60
2022/01/03 01:40:50;;;;;;;5.05;0.85;;;20.30;50.90;;;;;;5042930;28;20065;-59
2022/01/03 01:43:20;;;;;;;4.82;0.65;;;20.30;51.00;;;;;;5044952;28;20497;-59
2022/01/03 01:45:49;;;;;;;4.45;0.88;;;20.30;51.00;;;;;;5046737;28;20153;-59
2022/01/03 01:48:17;;;;;;;7.85;1.65;;;20.30;50.90;;;;;;5030092;28;20045;-59
2022/01/03 01:50:51;;;;;;;3.08;0.60;;;20.30;50.90;;;;;;5037125;28;20061;-59
2022/01/03 01:53:22;;;;;;;4.47;0.40;;;20.40;51.00;;;;;;5034252;28;20045;-59
2022/01/03 01:55:52;;;;;;;3.50;0.30;;;20.30;51.00;;;;;;5060975;28;20413;-58
2022/01/03 01:58:30;;;;;;;5.82;0.50;;;20.30;51.00;;;;;;5044105;28;20576;-58
2022/01/03 02:00:59;;;;;;;4.03;0.40;;;20.30;51.50;;;;;;5059069;28;20053;-59
2022/01/03 02:03:39;;;;;;;3.88;0.28;;;20.30;51.00;;;;;;5033684;28;20053;-59
2022/01/03 02:06:19;;;;;;;5.07;0.35;;;20.30;51.00;;;;;;5031485;28;20037;-59
2022/01/03 02:09:00;;;;;;;3.65;0.57;;;20.30;51.00;;;;;;5027776;28;20049;-59
2022/01/03 02:11:40;;;;;;;5.70;1.30;;;20.30;51.00;;;;;;5031366;28;20045;-59
2022/01/03 02:14:08;;;;;;;1.50;0.20;;;20.30;51.00;;;;;;5029914;28;20114;-59
2022/01/03 02:16:35;;;;;;;1.25;0.43;;;20.30;51.00;;;;;;5043717;28;20123;-59
2022/01/03 02:19:03;;;;;;;7.93;0.45;;;20.30;51.00;;;;;;5036229;28;20058;-59
2022/01/03 02:21:32;;;;;;;3.40;0.70;;;20.30;51.00;;;;;;5043369;28;20041;-58
2022/01/03 02:23:59;;;;;;;4.70;0.40;;;20.30;51.00;;;;;;5040457;28;20935;-58
2022/01/03 02:26:29;;;;;;;4.00;0.40;;;20.30;51.00;;;;;;5033655;28;20075;-59
2022/01/03 02:28:57;;;;;;;3.85;0.60;;;20.30;50.90;;;;;;5033818;28;20052;-59
2022/01/03 02:31:24;;;;;;;4.90;0.65;;;20.30;50.90;;;;;;5030776;28;20461;-59
2022/01/03 02:33:52;;;;;;;4.75;0.20;;;20.30;51.00;;;;;;5043653;28;20425;-58
2022/01/03 02:36:20;;;;;;;5.97;0.70;;;20.30;51.00;;;;;;5038282;28;20042;-58
2022/01/03 02:38:49;;;;;;;2.83;0.50;;;20.30;51.00;;;;;;5037330;28;20512;-59
2022/01/03 02:41:16;;;;;;;3.53;0.88;;;20.30;51.00;;;;;;5040953;28;20048;-61
2022/01/03 02:43:44;;;;;;;8.63;0.85;;;20.20;50.90;;;;;;5043673;28;20043;-60
2022/01/03 02:46:11;;;;;;;7.35;0.65;;;20.30;51.00;;;;;;5035771;28;20072;-60
2022/01/03 02:48:38;;;;;;;3.75;0.65;;;20.30;51.00;;;;;;5043871;28;20219;-58
2022/01/03 02:51:05;;;;;;;8.82;0.20;;;20.30;51.00;;;;;;5040610;28;20049;-59
2022/01/03 02:53:32;;;;;;;5.57;0.20;;;20.30;51.00;;;;;;5032818;28;20467;-59
2022/01/03 02:56:01;;;;;;;4.00;0.40;;;20.30;51.00;;;;;;5029531;28;20047;-59
2022/01/03 02:58:28;;;;;;;5.43;0.50;;;20.30;50.90;;;;;;5028929;28;20053;-59
2022/01/03 03:00:55;;;;;;;5.35;0.57;;;20.30;50.90;;;;;;5035487;28;20128;-59
2022/01/03 03:03:29;;;;;;;6.13;0.60;;;20.30;50.90;;;;;;5032481;28;20108;-56
2022/01/03 03:05:59;;;;;;;3.33;0.30;;;20.30;51.00;;;;;;5038599;28;20041;-58
2022/01/03 03:08:27;;;;;;;6.43;0.73;;;20.20;50.90;;;;;;5042869;28;20045;-59
2022/01/03 03:10:54;;;;;;;6.10;0.25;;;20.20;50.90;;;;;;5043606;28;20146;-59
2022/01/03 03:13:23;;;;;;;5.90;0.30;;;20.20;50.90;;;;;;5031533;28;20123;-58
2022/01/03 03:15:50;;;;;;;6.65;0.93;;;20.20;50.90;;;;;;5030503;28;20045;-59
2022/01/03 03:18:18;;;;;;;4.30;0.52;;;20.20;50.90;;;;;;5037035;28;20132;-57
2022/01/03 03:20:45;;;;;;;1.38;0.20;;;20.20;50.90;;;;;;5031252;28;20049;-58
2022/01/03 03:23:12;;;;;;;6.50;1.08;;;20.30;51.00;;;;;;5032118;28;20044;-58
2022/01/03 03:25:41;;;;;;;6.38;0.88;;;20.30;51.00;;;;;;5027505;28;20672;-59
2022/01/03 03:28:13;;;;;;;6.72;0.60;;;20.30;50.90;;;;;;5044143;28;20045;-59
2022/01/03 03:30:44;;;;;;;6.68;0.52;;;20.20;50.90;;;;;;5032671;28;20049;-58
2022/01/03 03:33:17;;;;;;;4.35;0.50;;;20.20;50.90;;;;;;5050914;28;20048;-57
2022/01/03 03:35:50;;;;;;;3.70;0.60;;;20.20;50.90;;;;;;5036661;28;20127;-58
2022/01/03 03:38:18;;;;;;;2.90;0.35;;;20.20;51.50;;;;;;5042801;28;20136;-59
2022/01/03 03:40:47;;;;;;;9.15;0.68;;;20.20;50.90;;;;;;5012529;28;20037;-59
2022/01/03 03:43:16;;;;;;;1.70;0.28;;;20.20;50.90;;;;;;5040188;28;20426;-59
2022/01/03 03:45:48;;;;;;;7.82;1.67;;;20.20;50.90;;;;;;5037503;28;20429;-58
2022/01/03 03:48:15;;;;;;;6.65;0.55;;;20.20;50.90;;;;;;5048787;28;20394;-59
2022/01/03 03:50:43;;;;;;;3.83;0.40;;;20.20;50.90;;;;;;5048221;28;20705;-59
2022/01/03 03:53:10;;;;;;;4.07;0.50;;;20.20;50.90;;;;;;5040589;28;20128;-60
2022/01/03 03:55:37;;;;;;;6.55;0.75;;;20.20;50.90;;;;;;5038825;28;20127;-58
2022/01/03 03:58:05;;;;;;;3.70;0.55;;;20.20;50.90;;;;;;5036855;28;20038;-59
2022/01/03 04:00:34;;;;;;;7.55;1.08;;;20.20;50.90;;;;;;5039895;28;20119;-57
2022/01/03 04:03:06;;;;;;;8.23;0.95;;;20.20;50.90;;;;;;5043284;28;20102;-59
2022/01/03 04:05:34;;;;;;;2.83;0.22;;;20.20;50.90;;;;;;5043266;28;20076;-59
2022/01/03 04:08:02;;;;;;;4.00;1.67;;;20.20;50.90;;;;;;5033763;28;20049;-58
2022/01/03 04:10:29;;;;;;;4.07;0.70;;;20.20;50.90;;;;;;5044777;28;20049;-58
2022/01/03 04:12:58;;;;;;;2.55;0.30;;;20.20;50.90;;;;;;5046846;28;20080;-60
2022/01/03 04:15:25;;;;;;;4.22;0.30;;;20.20;50.90;;;;;;5048505;28;20049;-58
2022/01/03 04:17:54;;;;;;;3.97;0.95;;;20.20;50.90;;;;;;5044297;28;20086;-59
2022/01/03 04:20:25;;;;;;;3.75;0.38;;;20.20;50.90;;;;;;5039921;28;20041;-59
2022/01/03 04:22:52;;;;;;;6.97;0.40;;;20.20;50.90;;;;;;5032903;28;20124;-60
2022/01/03 04:25:19;;;;;;;6.32;0.25;;;20.20;50.90;;;;;;5031052;28;20095;-59
2022/01/03 04:27:48;;;;;;;2.60;0.30;;;20.20;50.90;;;;;;5040391;28;20084;-59
2022/01/03 04:30:15;;;;;;;5.38;0.50;;;20.20;50.90;;;;;;5036074;28;20041;-59
2022/01/03 04:32:42;;;;;;;3.30;0.47;;;20.20;50.90;;;;;;5038517;28;20128;-57
2022/01/03 04:35:10;;;;;;;3.10;0.60;;;20.20;50.90;;;;;;5034248;28;20040;-59
2022/01/03 04:37:38;;;;;;;4.38;0.30;;;20.20;50.90;;;;;;5044024;28;20597;-58
2022/01/03 04:40:07;;;;;;;6.10;0.35;;;20.20;50.90;;;;;;5047533;28;20421;-57
2022/01/03 04:42:34;;;;;;;4.45;0.68;;;20.20;50.90;;;;;;5045596;28;20790;-56
2022/01/03 04:45:02;;;;;;;2.20;0.50;;;20.20;50.90;;;;;;5044241;28;20132;-55
2022/01/03 04:47:29;;;;;;;2.22;0.30;;;20.20;50.90;;;;;;5035784;28;20525;-56
2022/01/03 04:49:56;;;;;;;4.45;0.65;;;20.20;50.90;;;;;;5032549;28;20505;-58
2022/01/03 04:52:23;;;;;;;5.45;0.30;;;20.20;50.90;;;;;;5045516;28;20064;-58
2022/01/03 04:54:52;;;;;;;4.63;1.20;;;20.20;50.90;;;;;;5039743;28;20045;-59
2022/01/03 04:57:19;;;;;;;8.43;1.85;;;20.20;50.90;;;;;;5037058;28;20119;-59
2022/01/03 04:59:47;;;;;;;2.92;0.30;;;20.20;50.90;;;;;;5038397;28;20124;-55
2022/01/03 05:02:14;;;;;;;5.78;0.43;;;20.20;50.90;;;;;;5032833;28;20076;-60
2022/01/03 05:04:42;;;;;;;5.30;0.52;;;20.20;50.90;;;;;;5039480;28;20041;-59
2022/01/03 05:07:10;;;;;;;4.63;0.70;;;20.20;50.90;;;;;;5043287;28;20506;-58
2022/01/03 05:09:37;;;;;;;2.78;0.20;;;20.20;50.90;;;;;;5036487;28;20045;-60
2022/01/03 05:12:07;;;;;;;1.17;0.65;;;20.20;50.90;;;;;;5035747;28;20056;-57
2022/01/03 05:14:34;;;;;;;3.40;0.73;;;20.20;50.90;;;;;;5055253;28;20066;-60
2022/01/03 05:17:02;;;;;;;4.18;0.55;;;20.20;50.90;;;;;;5032460;28;20131;-61
2022/01/03 05:19:29;;;;;;;6.03;0.60;;;20.20;50.90;;;;;;5033615;28;20045;-58
2022/01/03 05:21:56;;;;;;;4.15;0.55;;;20.20;50.90;;;;;;5045180;28;20048;-60
2022/01/03 05:24:24;;;;;;;4.60;0.35;;;20.20;50.90;;;;;;5033429;28;20073;-60
2022/01/03 05:26:53;;;;;;;3.47;0.22;;;20.20;50.90;;;;;;5060748;28;20048;-59
2022/01/03 05:29:23;;;;;;;3.67;0.40;;;20.20;50.90;;;;;;5017558;28;20389;-60
2022/01/03 05:31:50;;;;;;;6.32;0.40;;;20.20;50.90;;;;;;5031031;28;20036;-60
2022/01/03 05:34:17;;;;;;;1.23;0.32;;;20.20;50.90;;;;;;5029358;28;20050;-60
2022/01/03 05:36:45;;;;;;;6.47;0.55;;;20.20;50.90;;;;;;5036311;28;20049;-60
2022/01/03 05:39:13;;;;;;;5.03;0.40;;;20.20;50.90;;;;;;5044611;28;20045;-60
2022/01/03 05:41:41;;;;;;;5.28;0.55;;;20.20;50.90;;;;;;5044421;28;20045;-60
2022/01/03 05:44:09;;;;;;;6.63;1.23;;;20.20;50.90;;;;;;5032317;28;20041;-60
2022/01/03 05:46:38;;;;;;;3.63;0.52;;;20.20;50.90;;;;;;5044186;28;20076;-60
2022/01/03 05:49:07;;;;;;;5.97;1.15;;;20.20;50.90;;;;;;5045922;28;20420;-59
2022/01/03 05:51:35;;;;;;;7.63;0.22;;;20.20;50.90;;;;;;5043761;28;20429;-61
2022/01/03 05:54:03;;;;;;;8.65;0.63;;;20.20;50.90;;;;;;5040496;28;20192;-60
2022/01/03 05:56:30;;;;;;;5.97;0.63;;;20.20;50.90;;;;;;5035112;28;20045;-60
2022/01/03 05:58:58;;;;;;;4.88;0.57;;;20.20;50.90;;;;;;5031252;28;20047;-61
2022/01/03 06:01:26;;;;;;;5.22;0.40;;;20.20;50.90;;;;;;5041938;28;20053;-61
2022/01/03 06:04:00;;;;;;;5.43;0.40;;;20.20;50.90;;;;;;5044393;28;20056;-61
2022/01/03 06:06:53;;;;;;;3.47;0.20;;;20.20;50.90;;;;;;5043625;28;20041;-60
2022/01/03 06:09:20;;;;;;;7.40;0.40;;;20.20;51.00;;;;;;5039333;28;20042;-61
2022/01/03 06:11:47;;;;;;;5.88;0.20;;;20.20;51.00;;;;;;5037234;28;20045;-61
2022/01/03 06:14:16;;;;;;;2.85;0.20;;;20.20;51.00;;;;;;5038903;28;20049;-61
2022/01/03 06:16:44;;;;;;;5.70;0.88;;;20.10;50.90;;;;;;5042250;28;20755;-60
2022/01/03 06:19:14;;;;;;;3.35;0.20;;;20.10;50.90;;;;;;5044980;28;20064;-60
2022/01/03 06:21:42;;;;;;;3.42;0.30;;;20.20;51.00;;;;;;5044757;28;20816;-60
2022/01/03 06:24:13;;;;;;;2.50;0.30;;;20.20;50.90;;;;;;5043801;28;20068;-60
2022/01/03 06:26:43;;;;;;;2.80;0.25;;;20.20;51.00;;;;;;5043112;28;20069;-60
2022/01/03 06:29:11;;;;;;;3.70;0.55;;;20.10;50.90;;;;;;5033221;28;20057;-60
2022/01/03 06:31:38;;;;;;;4.10;0.60;;;20.20;51.00;;;;;;5030459;28;20418;-61
2022/01/03 06:34:05;;;;;;;7.82;1.38;;;20.10;50.90;;;;;;5033524;28;20060;-60
2022/01/03 06:36:35;;;;;;;5.88;0.85;;;20.20;51.00;;;;;;5042679;28;20041;-60
2022/01/03 06:39:07;;;;;;;5.15;0.50;;;20.20;51.00;;;;;;5043351;28;20064;-58
2022/01/03 06:41:34;;;;;;;1.83;0.35;;;20.10;50.90;;;;;;5042920;28;20043;-60
2022/01/03 06:44:02;;;;;;;3.88;0.50;;;20.10;50.90;;;;;;5043443;28;20041;-59
2022/01/03 06:46:29;;;;;;;1.77;0.77;;;20.20;51.00;;;;;;5043063;28;20044;-59
2022/01/03 06:48:56;;;;;;;3.70;0.40;;;20.20;51.00;;;;;;5033332;28;20874;-58
2022/01/03 06:51:25;;;;;;;3.20;0.45;;;20.10;50.90;;;;;;5042262;28;20045;-59
2022/01/03 06:53:54;;;;;;;4.10;0.43;;;20.10;51.00;;;;;;5042768;28;20033;-58
2022/01/03 06:56:21;;;;;;;4.85;0.38;;;20.20;51.00;;;;;;5042809;28;20044;-58
2022/01/03 06:58:48;;;;;;;3.22;0.40;;;20.10;50.90;;;;;;5029133;28;20041;-59
2022/01/03 07:01:16;;;;;;;4.20;0.45;;;20.10;50.90;;;;;;5040815;28;20048;-60
2022/01/03 07:03:43;;;;;;;3.65;0.63;;;20.10;51.00;;;;;;5060139;28;20083;-58
2022/01/03 07:06:10;;;;;;;2.20;0.10;;;20.10;51.00;;;;;;5038445;28;20041;-58
2022/01/03 07:08:37;;;;;;;2.92;0.60;;;20.10;50.90;;;;;;5034284;28;20448;-59
2022/01/03 07:11:05;;;;;;;5.38;1.15;;;20.10;51.00;;;;;;5032409;28;20041;-59
2022/01/03 07:13:41;;;;;;;3.30;0.40;;;20.10;50.90;;;;;;5044540;28;20398;-59
2022/01/03 07:18:59;;;;;;;4.60;1.33;;;20.10;50.90;;;;;;5042192;28;20132;-60
2022/01/03 07:21:28;;;;;;;4.63;0.52;;;20.10;51.00;;;;;;5042667;28;20045;-61
2022/01/03 07:23:56;;;;;;;4.15;0.20;;;20.10;51.00;;;;;;5033918;28;20255;-61
2022/01/03 07:26:25;;;;;;;2.42;0.40;;;20.10;51.00;;;;;;5032601;28;20494;-61
2022/01/03 07:28:53;;;;;;;1.98;0.43;;;20.10;51.00;;;;;;5033362;28;20037;-60
2022/01/03 07:31:21;;;;;;;8.25;0.40;;;20.10;51.60;;;;;;5041422;28;20042;-60
2022/01/03 07:33:48;;;;;;;5.55;1.35;;;20.10;51.00;;;;;;5035742;28;20042;-60
2022/01/03 07:36:15;;;;;;;5.72;0.30;;;20.10;51.00;;;;;;5036318;28;20130;-59
2022/01/03 07:38:46;;;;;;;8.55;0.40;;;20.20;51.00;;;;;;5032001;28;20054;-59
2022/01/03 07:41:14;;;;;;;5.93;1.17;;;20.10;51.00;;;;;;5029670;28;20033;-60
2022/01/03 07:43:43;;;;;;;3.83;0.43;;;20.10;51.00;;;;;;5043774;28;20048;-59
2022/01/03 07:46:10;;;;;;;4.43;0.55;;;20.10;51.00;;;;;;5035779;28;20076;-59
2022/01/03 07:48:38;;;;;;;3.08;1.23;;;20.10;51.00;;;;;;5033816;28;20042;-60
2022/01/03 07:51:05;;;;;;;2.80;0.50;;;20.10;51.00;;;;;;5036591;28;20052;-60
2022/01/03 07:53:32;;;;;;;5.88;0.40;;;20.10;51.00;;;;;;5033785;28;20505;-59
2022/01/03 07:55:59;;;;;;;3.80;0.30;;;20.10;51.00;;;;;;5034440;28;20124;-59
2022/01/03 07:58:26;;;;;;;9.30;1.25;;;20.10;51.00;;;;;;5030328;28;20049;-60
2022/01/03 08:00:54;;;;;;;7.75;0.47;;;20.10;51.00;;;;;;5033591;28;20069;-59
2022/01/03 08:03:22;;;;;;;2.45;0.40;;;20.10;51.00;;;;;;5038799;28;20391;-61
2022/01/03 08:05:50;;;;;;;8.90;0.70;;;20.10;51.00;;;;;;5034500;28;20052;-59
2022/01/03 08:08:17;;;;;;;5.80;0.38;;;20.10;51.00;;;;;;5030486;28;20418;-60
2022/01/03 08:10:46;;;;;;;4.22;1.65;;;20.10;51.00;;;;;;5032478;28;20046;-59
2022/01/03 08:13:13;;;;;;;7.85;0.88;;;20.10;51.00;;;;;;5035275;28;20045;-60
2022/01/03 08:15:40;;;;;;;3.42;0.98;;;20.10;51.00;;;;;;5034034;28;20052;-59
2022/01/03 08:18:09;;;;;;;8.13;1.23;;;20.10;51.00;;;;;;5034885;28;20045;-59
2022/01/03 08:20:36;;;;;;;5.28;0.77;;;20.10;51.00;;;;;;5033062;28;20080;-59
2022/01/03 08:23:03;;;;;;;1.30;0.20;;;20.10;51.00;;;;;;5030944;28;20034;-61
2022/01/03 08:25:33;;;;;;;5.82;0.20;;;20.10;51.60;;;;;;5030382;28;31390;-58
2022/01/03 08:28:00;;;;;;;7.18;0.73;;;20.10;51.00;;;;;;5037030;28;20048;-60
2022/01/03 08:30:27;;;;;;;4.18;0.50;;;20.10;51.00;;;;;;5032169;28;20049;-60
2022/01/03 08:32:54;;;;;;;3.20;0.30;;;20.10;51.00;;;;;;5036859;28;20135;-59
2022/01/03 08:35:24;;;;;;;4.03;0.50;;;20.10;51.00;;;;;;5041875;28;20049;-59
2022/01/03 08:37:51;;;;;;;2.70;0.43;;;20.10;51.00;;;;;;5034685;28;20052;-60
2022/01/03 08:40:19;;;;;;;4.85;0.20;;;20.10;51.00;;;;;;5032907;28;20046;-60
2022/01/03 08:42:47;;;;;;;3.60;0.55;;;20.10;51.10;;;;;;5035081;28;20045;-60
2022/01/03 08:45:14;;;;;;;7.57;0.57;;;20.10;51.10;;;;;;5039710;28;20045;-60
2022/01/03 08:47:42;;;;;;;3.53;0.90;;;20.10;51.00;;;;;;5035794;28;20771;-60
2022/01/03 08:50:10;;;;;;;6.63;0.80;;;20.10;51.70;;;;;;5043959;28;20120;-60
2022/01/03 08:52:38;;;;;;;4.45;0.30;;;20.10;51.00;;;;;;5033386;28;20501;-60
2022/01/03 08:55:06;;;;;;;3.15;0.43;;;20.10;51.10;;;;;;5042795;28;20044;-60
2022/01/03 08:57:33;;;;;;;5.90;0.95;;;20.10;51.00;;;;;;5036914;28;20092;-60
2022/01/03 09:00:01;;;;;;;3.83;0.73;;;20.10;51.10;;;;;;5036694;28;20037;-60
2022/01/03 09:02:28;;;;;;;2.70;0.63;;;20.10;51.00;;;;;;5036421;28;20037;-59
2022/01/03 09:04:55;;;;;;;4.25;0.35;;;20.10;51.10;;;;;;5037011;28;20056;-60
2022/01/03 09:07:22;;;;;;;3.13;0.40;;;20.10;51.10;;;;;;5033228;28;20045;-60
2022/01/03 09:09:50;;;;;;;4.93;0.50;;;20.10;51.10;;;;;;5036921;28;20045;-60
2022/01/03 09:12:17;;;;;;;2.83;0.73;;;20.10;51.10;;;;;;5041591;28;20806;-59
2022/01/03 09:14:44;;;;;;;2.75;0.98;;;20.10;51.10;;;;;;5037852;28;20130;-60
2022/01/03 09:17:11;;;;;;;3.70;0.52;;;20.10;51.10;;;;;;5033366;28;20040;-60
2022/01/03 09:19:38;;;;;;;3.03;0.30;;;20.10;51.10;;;;;;5040216;28;20049;-60
2022/01/03 09:22:14;;;;;;;1.35;0.40;;;20.10;51.10;;;;;;5033696;28;20060;-60
2022/01/03 09:24:54;;;;;;;3.50;0.63;;;20.10;51.10;;;;;;5034125;28;20042;-59
2022/01/03 09:30:10;;;;;;;4.25;1.10;;;20.10;51.10;;;;;;5039249;28;20053;-60
2022/01/03 09:32:37;;;;;;;4.72;0.40;;;20.10;51.20;;;;;;5037521;28;20067;-60
2022/01/03 09:35:05;;;;;;;5.30;0.82;;;20.10;51.20;;;;;;5034160;28;20116;-61
2022/01/03 09:37:33;;;;;;;5.93;0.88;;;20.10;51.80;;;;;;5032804;28;20092;-60
2022/01/03 09:40:01;;;;;;;6.43;0.60;;;20.10;51.20;;;;;;5045764;28;20041;-61
2022/01/03 09:42:31;;;;;;;7.75;0.90;;;20.10;51.20;;;;;;5035813;28;20480;-60
2022/01/03 09:45:02;;;;;;;5.60;0.40;;;20.10;51.20;;;;;;5038649;28;20045;-60
2022/01/03 09:47:31;;;;;;;6.22;0.85;;;20.10;51.20;;;;;;5034596;28;20863;-60
2022/01/03 09:49:59;;;;;;;6.72;1.05;;;20.10;51.20;;;;;;5031728;28;20040;-60
2022/01/03 09:52:27;;;;;;;4.47;0.75;;;20.10;51.20;;;;;;5037796;28;20043;-60
2022/01/03 09:54:57;;;;;;;3.72;0.25;;;20.20;51.30;;;;;;5039543;28;20038;-59
2022/01/03 09:57:26;;;;;;;2.95;0.75;;;20.10;51.20;;;;;;5035377;28;20050;-59
2022/01/03 09:59:54;;;;;;;6.35;0.68;;;20.10;51.20;;;;;;5033574;28;20045;-60
2022/01/03 10:02:22;;;;;;;7.43;1.55;;;20.10;51.20;;;;;;5035636;28;20124;-59
2022/01/03 10:04:49;;;;;;;7.80;1.33;;;20.10;51.20;;;;;;5042972;28;20033;-59
2022/01/03 10:07:17;;;;;;;5.20;0.43;;;20.10;51.20;;;;;;5032386;28;20522;-60
2022/01/03 10:09:45;;;;;;;2.92;0.38;;;20.10;51.20;;;;;;5036097;28;20600;-60
2022/01/03 10:12:14;;;;;;;2.80;0.40;;;20.20;51.20;;;;;;5040675;28;20052;-58
2022/01/03 10:14:41;;;;;;;5.35;1.00;;;20.20;51.30;;;;;;5036694;28;20041;-60
2022/01/03 10:17:11;;;;;;;6.85;0.80;;;20.20;51.20;;;;;;5034486;28;20041;-60
2022/01/03 10:19:53;;;;;;;2.30;0.35;;;20.20;51.20;;;;;;5033406;28;20044;-59
2022/01/03 10:22:22;;;;;;;5.15;0.55;;;20.20;51.20;;;;;;5027659;28;20124;-59
2022/01/03 10:24:50;;;;;;;4.95;0.30;;;20.20;51.20;;;;;;5036409;28;20102;-59
2022/01/03 10:27:17;;;;;;;3.72;0.60;;;20.20;51.20;;;;;;5037936;28;20052;-60
2022/01/03 10:29:55;;;;;;;2.90;1.00;;;20.20;51.20;;;;;;5032766;28;20080;-59
2022/01/03 10:32:28;;;;;;;2.05;0.30;;;20.20;51.20;;;;;;5034469;28;20478;-60
2022/01/03 10:34:57;;;;;;;5.72;0.30;;;20.20;51.20;;;;;;5032313;28;20055;-60
2022/01/03 10:37:35;;;;;;;5.18;0.85;;;20.20;51.20;;;;;;5033249;28;20045;-59
2022/01/03 10:40:17;;;;;;;4.13;1.02;;;20.20;51.20;;;;;;5032765;28;20056;-60
2022/01/03 10:42:44;;;;;;;5.00;1.17;;;20.20;51.20;;;;;;5033610;28;20060;-60
2022/01/03 10:45:11;;;;;;;4.78;0.43;;;20.20;51.20;;;;;;5037923;28;20061;-60
2022/01/03 10:47:41;;;;;;;4.22;0.43;;;20.20;51.20;;;;;;5033815;28;20103;-60
2022/01/03 10:50:16;;;;;;;2.78;0.70;;;20.20;51.20;;;;;;5031107;28;20037;-61
2022/01/03 10:52:45;;;;;;;2.15;0.22;;;20.30;51.20;;;;;;5030375;28;20485;-60
2022/01/03 10:55:15;;;;;;;3.83;0.40;;;20.20;51.20;;;;;;5035093;28;20087;-60
2022/01/03 10:57:47;;;;;;;2.65;0.50;;;20.20;51.20;;;;;;5033840;28;20252;-60
2022/01/03 11:00:16;;;;;;;4.05;0.32;;;20.20;51.20;;;;;;5034609;28;20163;-59
2022/01/03 11:03:06;;;;;;;2.80;1.35;;;20.20;51.20;;;;;;5037531;28;20554;-60
2022/01/03 11:05:38;;;;;;;3.05;0.40;;;20.20;51.10;;;;;;5034764;28;20053;-59
2022/01/03 11:10:51;;;;;;;5.80;0.55;;;20.20;51.20;;;;;;5032848;28;20036;-59
2022/01/03 11:13:19;;;;;;;2.17;0.20;;;20.20;51.20;;;;;;5035671;28;20080;-60
2022/01/03 11:15:52;;;;;;;2.65;0.82;;;20.20;51.20;;;;;;5035427;28;20041;-60
2022/01/03 11:18:22;;;;;;;2.05;0.47;;;20.20;51.20;;;;;;5034989;28;20116;-60
2022/01/03 11:21:01;;;;;;;2.55;0.50;;;20.20;51.20;;;;;;5033700;28;20052;-60
2022/01/03 11:23:28;;;;;;;2.22;0.77;;;20.20;51.20;;;;;;5044048;28;20059;-60
2022/01/03 11:25:55;;;;;;;3.00;0.38;;;20.20;51.20;;;;;;5031044;28;20037;-60
2022/01/03 11:28:23;;;;;;;6.07;0.80;;;20.20;51.20;;;;;;5033853;28;20040;-59
2022/01/03 11:30:52;;;;;;;8.02;1.08;;;20.30;51.20;;;;;;5031365;28;20110;-60
2022/01/03 11:33:21;;;;;;;2.10;0.88;;;20.30;51.20;;;;;;5035163;28;20517;-59
2022/01/03 11:35:49;;;;;;;4.03;0.30;;;20.30;51.20;;;;;;5042836;28;20049;-59
2022/01/03 11:38:21;;;;;;;3.92;0.20;;;20.30;51.20;;;;;;5031736;28;20037;-59
2022/01/03 11:40:48;;;;;;;2.47;0.52;;;20.30;51.10;;;;;;5035033;28;20053;-59
2022/01/03 11:43:16;;;;;;;3.00;0.20;;;20.30;51.10;;;;;;5027841;28;20044;-59
2022/01/03 11:45:44;;;;;;;7.15;0.60;;;20.30;51.10;;;;;;5034338;28;20046;-61
2022/01/03 11:48:13;;;;;;;4.43;0.45;;;20.30;51.10;;;;;;5032963;28;20850;-59
2022/01/03 11:50:42;;;;;;;3.78;0.63;;;20.30;51.10;;;;;;5033311;28;20135;-58
2022/01/03 11:53:11;;;;;;;4.57;0.50;;;20.30;51.10;;;;;;5038726;28;20122;-58
2022/01/03 11:55:40;;;;;;;2.38;0.40;;;20.30;51.10;;;;;;5033604;28;20064;-58
2022/01/03 11:58:14;;;;;;;2.65;0.25;;;20.30;51.00;;;;;;5044878;28;20033;-59
2022/01/03 12:03:51;;;;;;;3.67;0.52;;;20.30;51.00;;;;;;5038950;28;20502;-59
2022/01/03 12:06:32;;;;;;;5.65;1.08;;;20.30;51.00;;;;;;5040109;28;20553;-59
2022/01/03 12:09:03;;;;;;;3.65;1.05;;;20.30;51.00;;;;;;5039260;28;20195;-60
2022/01/03 12:11:31;;;;;;;3.58;0.40;;;20.30;51.00;;;;;;5037037;28;20132;-60
2022/01/03 12:13:59;;;;;;;1.88;0.15;;;20.30;51.00;;;;;;5038059;28;20037;-59
2022/01/03 12:16:43;;;;;;;6.22;0.55;;;20.30;51.00;;;;;;5034275;28;20046;-61
2022/01/03 12:19:13;;;;;;;2.47;0.30;;;20.40;51.00;;;;;;5033624;28;20046;-61
2022/01/03 12:21:53;;;;;;;5.78;1.33;;;20.40;51.10;;;;;;5047802;28;20052;-61
2022/01/03 12:24:40;;;;;;;3.03;1.58;;;20.40;51.00;;;;;;5046138;28;20048;-59
2022/01/03 12:27:34;;;;;;;1.50;0.52;;;20.40;51.00;;;;;;5038992;28;20068;-59
2022/01/03 12:30:30;;;;;;;5.40;1.20;;;20.40;51.00;;;;;;5034138;28;20179;-60
2022/01/03 12:33:14;;;;;;;3.60;0.73;;;20.40;51.00;;;;;;5039898;28;20577;-60
2022/01/03 12:35:43;;;;;;;2.55;0.40;;;20.50;51.00;;;;;;5038487;28;20044;-60
2022/01/03 12:38:17;;;;;;;5.63;1.08;;;20.50;51.10;;;;;;5034757;28;20051;-60
2022/01/03 12:40:53;;;;;;;4.38;0.65;;;20.50;51.00;;;;;;5032212;28;20033;-59
2022/01/03 12:43:45;;;;;;;2.53;0.70;;;20.50;50.90;;;;;;5034353;28;20049;-59
2022/01/03 12:46:23;;;;;;;3.97;0.80;;;20.50;50.80;;;;;;5034279;28;20429;-58
2022/01/03 12:48:52;;;;;;;5.60;1.08;;;20.50;50.80;;;;;;5035649;28;20052;-60
2022/01/03 12:51:19;;;;;;;2.70;0.60;;;20.50;50.80;;;;;;5035883;28;20042;-59
2022/01/03 12:53:50;;;;;;;3.35;1.05;;;20.50;50.70;;;;;;5036757;28;20045;-59
2022/01/03 12:56:21;;;;;;;3.50;0.50;;;20.60;50.80;;;;;;5035948;28;20057;-58
2022/01/03 12:58:51;;;;;;;6.72;1.15;;;20.50;50.70;;;;;;5046409;28;20037;-58
2022/01/03 13:01:30;;;;;;;3.13;0.85;;;20.60;50.70;;;;;;5032403;28;20253;-58
2022/01/03 13:04:04;;;;;;;3.33;0.70;;;20.60;50.70;;;;;;5039413;28;20041;-58
2022/01/03 13:06:33;;;;;;;4.57;1.42;;;20.60;50.70;;;;;;5040198;28;20475;-59
2022/01/03 13:09:09;;;;;;;7.35;1.27;;;20.60;50.70;;;;;;5044318;28;20063;-58
2022/01/03 13:11:39;;;;;;;2.38;0.63;;;20.60;50.70;;;;;;5037841;28;20049;-58